INFORMACIÓN METAR y TAF
METAR FOR LEIB
ADDS - METARS form results

(0009 UTC 14 June 2021)
Data provider http://aviationweather.gov/metar/data/
 
METAR text: LEIB 140000Z VRB02KT CAVOK 20/13 Q1019 NOSIG
Conditions at: LEIB (IBIZA/ES CODOLA , ES) observed 0000 UTC 14 June 2021
Temperature: 20.0°C (68°F)
Dewpoint: 13.0°C (55°F) [RH = 64%]
Pressure (altimeter): 30.09 inches Hg (1019.0 mb)
Winds: variable direction winds at 2 MPH (2 knots; 1.0 m/s)
Visibility: 6 or more miles (10+ km)
Ceiling: ceiling and visibility are OK
Clouds: unknown
Weather: no significant weather observed at this time

METAR text: LEIB 132330Z 32002KT CAVOK 21/13 Q1019 NOSIG
Conditions at: LEIB (IBIZA/ES CODOLA , ES) observed 2330 UTC 13 June 2021
Temperature: 21.0°C (70°F)
Dewpoint: 13.0°C (55°F) [RH = 60%]
Pressure (altimeter): 30.09 inches Hg (1019.0 mb)
Winds: from the NW (320 degrees) at 2 MPH (2 knots; 1.0 m/s)
Visibility: 6 or more miles (10+ km)
Ceiling: ceiling and visibility are OK
Clouds: unknown
Weather: no significant weather observed at this time

Forecast for: LEIB (IBIZA/ES CODOLA , ES)
Text: TAF LEIB 132000Z 1321/1421 08010KT CAVOK TX29/1412Z TN19/1406Z
Forecast period: 2100 UTC 13 June 2021 to 2100 UTC 14 June 2021
Forecast type: FROM: standard forecast or significant change
Winds: from the E (80 degrees) at 12 MPH (10 knots; 5.1 m/s)
Visibility: 6 or more miles (10+ km)
Ceiling: unknown
Clouds: missing
Weather: no significant weather forecast for this period
Text: BECMG 1321/1323 02007KT
Forecast period: 2100 UTC 13 June 2021 to 0700 UTC 14 June 2021
Forecast type: BECOMING: Conditions expected to become as follows by 2300 UTC 13 June 2021
Winds: from the NNE (20 degrees) at 8 MPH (7 knots; 3.6 m/s)
Visibility: 6 or more miles (10+ km)
Ceiling: unknown
Clouds: missing
Weather: no significant weather forecast for this period
Text: BECMG 1407/1409 08010KT
Forecast period: 0700 to 2100 UTC 14 June 2021
Forecast type: BECOMING: Conditions expected to become as follows by 0900 UTC 14 June 2021
Winds: from the E (80 degrees) at 12 MPH (10 knots; 5.1 m/s)
Visibility: 6 or more miles (10+ km)
Ceiling: unknown
Clouds: missing
Weather: no significant weather forecast for this period

 MAPA DE AEROPUERTO

 INFORMACIÓN DE PISTA
Pista 06 Longitud 9186 ft Ancho 148 ft
Elevación 13 ft Umbral desplazado 0 ft Rumbo de pista 62
Pista 24 Longitud 9186 ft Ancho 148 ft
Elevación 16 ft Umbral desplazado 0 ft Rumbo de pista 242

 FRECUANCIAS DEL AEROPUERTO
Tipo APP Nombre PALMA APP Frecuencia 118.125 MHZ
Tipo APP Nombre APP Frecuencia 119.8 MHZ
Tipo ATIS Nombre ATIS Frecuencia 117.8 MHZ
Tipo GND Nombre GND Frecuencia 121.8 MHZ
Tipo TWR Nombre TWR Frecuencia 118.5 MHZ

 RADIO AYUDAS DEL AEROPUERTO
Tipo VOR-DME Nombre Ibiza Frecuencia 117800 KHZ
Tipo NDB Nombre Ibiza Frecuencia 394 KHZ




Normativa | Spanair Virtual © 2021 |